aviador You're here:

K1S5 Decoded Metar

in
Report Time2017-07-21 06:35:00
UTC Time2017-07-21 06:44:48
Flight Rules vfr VFR
WindCalm
Visibility9999 m
Phenomena:N/A
Clouds:N/A
Expected CloudBase > 800 ft AGL from Temp-Dew spread
CeilingNone
Temp12°C
Dew Point10°C (88% RH)
QNH1017 hPa
Raw Report
METAR K1S5 210635Z AUTO 00000KT 10SM 12/10 A3004 RMK AO2 T01240098=

Extra information for K1S5:More info

Social comments